createdAt,value
2023-05-11T00:00:41.851Z,18.65
2023-05-11T00:03:08.556Z,20.77
2023-05-11T00:05:35.356Z,14.88
2023-05-11T00:08:01.945Z,10.63
2023-05-11T00:10:29.733Z,10.45
2023-05-11T00:12:56.710Z,11.10
2023-05-11T00:15:23.894Z,12.35
2023-05-11T00:17:50.574Z,16.60
2023-05-11T00:20:17.536Z,18.33
2023-05-11T00:22:45.019Z,11.77
2023-05-11T00:25:11.694Z,13.48
2023-05-11T00:27:38.273Z,16.85
2023-05-11T00:30:05.567Z,12.15
2023-05-11T00:32:32.175Z,9.15
2023-05-11T00:34:58.755Z,16.50
2023-05-11T00:37:26.264Z,13.02
2023-05-11T00:39:53.631Z,16.25
2023-05-11T00:42:20.162Z,9.85
2023-05-11T00:44:47.262Z,19.45
2023-05-11T00:47:13.977Z,13.25
2023-05-11T00:49:42.069Z,18.38
2023-05-11T00:52:08.970Z,8.85
2023-05-11T00:54:36.184Z,14.02
2023-05-11T00:57:04.052Z,12.57
2023-05-11T00:59:30.898Z,14.50
2023-05-11T01:01:57.951Z,13.52
2023-05-11T01:04:24.810Z,22.17
2023-05-11T01:07:04.685Z,18.02
2023-05-11T01:09:37.480Z,13.25
2023-05-11T01:12:15.884Z,13.95
2023-05-11T01:14:55.025Z,15.30
2023-05-11T01:17:30.000Z,14.05
2023-05-11T01:20:02.812Z,18.52
2023-05-11T01:22:48.917Z,8.65
2023-05-11T01:25:52.937Z,21.67
2023-05-11T01:28:41.381Z,11.15
2023-05-11T01:31:11.041Z,24.02
2023-05-11T01:33:41.122Z,16.77
2023-05-11T01:36:11.165Z,16.58
2023-05-11T01:38:42.114Z,23.55
2023-05-11T01:41:22.503Z,21.17
2023-05-11T01:43:55.837Z,22.75
2023-05-11T01:46:26.486Z,15.43
2023-05-11T01:48:56.371Z,27.55
2023-05-11T01:51:27.926Z,15.43
2023-05-11T01:53:56.190Z,16.25
2023-05-11T01:56:25.015Z,18.80
2023-05-11T01:58:53.603Z,16.35
2023-05-11T02:01:20.931Z,12.93
2023-05-11T02:03:49.724Z,19.70
2023-05-11T02:06:18.940Z,14.05
2023-05-11T02:08:46.662Z,16.10
2023-05-11T02:11:14.737Z,22.58
2023-05-11T02:13:43.670Z,20.67
2023-05-11T02:16:11.034Z,19.65
2023-05-11T02:18:41.001Z,13.50
2023-05-11T02:21:09.224Z,20.35
2023-05-11T02:23:37.272Z,16.70
2023-05-11T02:26:06.286Z,17.00
2023-05-11T02:28:32.907Z,21.38
2023-05-11T02:31:05.484Z,15.90
2023-05-11T02:33:36.523Z,15.65
2023-05-11T02:36:04.606Z,17.63
2023-05-11T02:38:34.566Z,19.52
2023-05-11T02:41:06.332Z,19.08
2023-05-11T02:43:36.961Z,16.33
2023-05-11T02:46:07.033Z,17.73
2023-05-11T02:48:41.751Z,12.60
2023-05-11T02:51:11.274Z,14.00
2023-05-11T02:53:41.414Z,15.68
2023-05-11T02:56:09.154Z,19.00
2023-05-11T02:58:36.011Z,23.90
2023-05-11T03:01:06.532Z,17.92
2023-05-11T03:03:33.324Z,11.20
2023-05-11T03:05:59.857Z,18.80
2023-05-11T03:08:26.532Z,12.18
2023-05-11T03:10:54.318Z,12.45
2023-05-11T03:13:22.631Z,8.77
2023-05-11T03:15:49.984Z,13.95
2023-05-11T03:18:18.141Z,16.13
2023-05-11T03:20:47.209Z,18.85
2023-05-11T03:23:16.010Z,12.13
2023-05-11T03:25:43.580Z,14.00
2023-05-11T03:28:11.415Z,16.75
2023-05-11T03:30:39.717Z,18.80
2023-05-11T03:33:06.702Z,16.90
2023-05-11T03:35:35.427Z,18.35
2023-05-11T03:38:04.618Z,19.50
2023-05-11T03:40:33.614Z,12.40
2023-05-11T03:43:02.880Z,14.88
2023-05-11T03:45:31.726Z,8.98
2023-05-11T03:47:59.537Z,17.55
2023-05-11T03:50:27.400Z,12.63
2023-05-11T03:52:55.212Z,25.90
2023-05-11T03:55:22.928Z,24.42
2023-05-11T03:57:49.636Z,16.25
2023-05-11T04:00:16.732Z,22.17
2023-05-11T04:02:43.748Z,19.77
2023-05-11T04:05:11.698Z,14.77
2023-05-11T04:07:39.094Z,12.10
2023-05-11T04:10:06.782Z,19.63
2023-05-11T04:12:33.425Z,12.70
2023-05-11T04:15:00.083Z,21.13
2023-05-11T04:17:26.673Z,12.20
2023-05-11T04:19:53.251Z,16.60
2023-05-11T04:22:19.793Z,14.73
2023-05-11T04:24:46.299Z,13.35
2023-05-11T04:27:13.014Z,14.75
2023-05-11T04:29:39.560Z,13.52
2023-05-11T04:32:06.127Z,15.13
2023-05-11T04:34:32.723Z,10.68
2023-05-11T04:36:59.310Z,17.63
2023-05-11T04:39:26.274Z,15.18
2023-05-11T04:41:52.898Z,13.13
2023-05-11T04:44:19.403Z,12.85
2023-05-11T04:46:46.019Z,19.80
2023-05-11T04:49:12.562Z,14.25
2023-05-11T04:51:39.390Z,12.82
2023-05-11T04:54:05.972Z,12.88
2023-05-11T04:56:32.545Z,15.27
2023-05-11T04:58:59.046Z,17.92
2023-05-11T05:01:25.638Z,14.65
2023-05-11T05:03:52.380Z,14.32
2023-05-11T05:06:18.951Z,14.80
2023-05-11T05:08:45.552Z,15.60
2023-05-11T05:11:12.136Z,10.93
2023-05-11T05:13:39.391Z,14.20
2023-05-11T05:16:06.114Z,9.05
2023-05-11T05:18:32.968Z,10.73
2023-05-11T05:20:59.660Z,23.80
2023-05-11T05:23:26.519Z,11.88
2023-05-11T05:25:53.049Z,9.93
2023-05-11T05:28:19.596Z,9.00
2023-05-11T05:30:46.130Z,13.13
2023-05-11T05:33:12.718Z,11.35
2023-05-11T05:35:39.261Z,12.45
2023-05-11T05:38:05.806Z,8.38
2023-05-11T05:40:32.423Z,13.65
2023-05-11T05:42:58.935Z,25.00
2023-05-11T05:45:25.519Z,8.18
2023-05-11T05:47:52.378Z,9.40
2023-05-11T05:50:19.210Z,11.68
2023-05-11T05:52:46.057Z,14.25
2023-05-11T05:55:13.227Z,10.80
2023-05-11T05:57:39.817Z,11.82
2023-05-11T06:00:07.030Z,14.52
2023-05-11T06:02:33.628Z,26.10
2023-05-11T06:05:00.361Z,13.95
2023-05-11T06:07:27.077Z,13.07
2023-05-11T06:09:53.592Z,16.80
2023-05-11T06:12:20.217Z,8.48
2023-05-11T06:14:46.725Z,9.60
2023-05-11T06:17:13.465Z,15.55
2023-05-11T06:19:40.673Z,13.55
2023-05-11T06:22:07.883Z,8.77
2023-05-11T06:24:34.465Z,9.25
2023-05-11T06:27:01.229Z,16.63
2023-05-11T06:29:27.764Z,8.60
2023-05-11T06:31:55.965Z,11.43
2023-05-11T06:34:22.771Z,6.07
2023-05-11T06:36:49.384Z,12.40
2023-05-11T06:39:16.079Z,13.70
2023-05-11T06:41:42.668Z,11.15
2023-05-11T06:44:09.210Z,12.60
2023-05-11T06:46:35.975Z,10.05
2023-05-11T06:49:02.952Z,17.38
2023-05-11T06:51:29.562Z,9.43
2023-05-11T06:53:56.086Z,13.77
2023-05-11T06:56:22.670Z,10.10
2023-05-11T06:58:49.211Z,12.90
2023-05-11T07:01:16.171Z,13.52
2023-05-11T07:03:42.869Z,9.82
2023-05-11T07:06:09.422Z,19.08
2023-05-11T07:08:35.952Z,12.13
2023-05-11T07:11:02.481Z,10.50
2023-05-11T07:13:28.972Z,14.07
2023-05-11T07:15:57.542Z,12.40
2023-05-11T07:18:24.591Z,14.73
2023-05-11T07:20:51.258Z,12.85
2023-05-11T07:23:18.516Z,10.55
2023-05-11T07:25:45.460Z,11.23
2023-05-11T07:28:12.008Z,9.85
2023-05-11T07:30:38.585Z,8.77
2023-05-11T07:33:05.195Z,9.23
2023-05-11T07:35:32.069Z,13.07
2023-05-11T07:37:58.679Z,7.07
2023-05-11T07:40:25.452Z,13.43
2023-05-11T07:42:51.978Z,6.93
2023-05-11T07:45:18.744Z,7.78
2023-05-11T07:47:45.431Z,14.73
2023-05-11T07:50:12.723Z,11.82
2023-05-11T07:52:39.564Z,12.88
2023-05-11T07:55:06.655Z,8.77
2023-05-11T07:57:33.191Z,9.00
2023-05-11T07:59:59.746Z,13.85
2023-05-11T08:02:26.623Z,11.07
2023-05-11T08:04:53.232Z,15.55
2023-05-11T08:07:19.950Z,5.78
2023-05-11T08:09:46.516Z,9.70
2023-05-11T08:12:13.363Z,5.50
2023-05-11T08:14:39.953Z,6.15
2023-05-11T08:17:06.630Z,5.75
2023-05-11T08:19:33.231Z,8.30
2023-05-11T08:22:01.462Z,6.63
2023-05-11T08:24:28.036Z,5.85
2023-05-11T08:26:54.577Z,10.98
2023-05-11T08:29:21.249Z,6.70
2023-05-11T08:31:49.569Z,7.25
2023-05-11T08:34:20.113Z,7.38
2023-05-11T08:36:47.281Z,4.15
2023-05-11T08:39:14.025Z,10.00
2023-05-11T08:41:40.738Z,10.40
2023-05-11T08:44:08.146Z,13.93
2023-05-11T08:46:36.184Z,8.73
2023-05-11T08:49:02.994Z,16.27
2023-05-11T08:51:29.548Z,18.42
2023-05-11T08:53:57.827Z,21.90
2023-05-11T08:56:29.850Z,11.95
2023-05-11T08:58:57.686Z,8.70
2023-05-11T09:01:28.216Z,9.00
2023-05-11T09:03:56.338Z,8.52
2023-05-11T09:06:25.361Z,17.10
2023-05-11T09:08:53.067Z,14.10
2023-05-11T09:11:20.224Z,14.68
2023-05-11T09:13:47.400Z,12.60
2023-05-11T09:18:51.267Z,10.63
2023-05-11T09:21:18.687Z,10.63
2023-05-11T09:23:45.405Z,13.27
2023-05-11T09:26:33.872Z,13.20
2023-05-11T09:29:03.690Z,14.85
2023-05-11T09:31:41.665Z,7.82
2023-05-11T09:34:19.907Z,8.20
2023-05-11T09:36:54.827Z,11.88
2023-05-11T09:39:43.888Z,6.93
2023-05-11T09:42:18.429Z,3.97
2023-05-11T09:44:46.671Z,7.85
2023-05-11T09:47:14.997Z,6.72
2023-05-11T09:49:45.701Z,12.70
2023-05-11T09:52:14.768Z,9.00
2023-05-11T09:54:51.137Z,5.78
2023-05-11T09:57:25.756Z,8.15
2023-05-11T09:59:53.638Z,6.68
2023-05-11T10:02:28.381Z,5.63
2023-05-11T10:04:57.110Z,7.60
2023-05-11T10:07:28.033Z,3.67
2023-05-11T10:09:56.944Z,5.07
2023-05-11T10:12:25.815Z,10.55
2023-05-11T10:14:56.915Z,5.65
2023-05-11T10:17:25.480Z,3.67
2023-05-11T10:19:55.689Z,11.98
2023-05-11T10:22:24.870Z,6.00
2023-05-11T10:24:52.748Z,15.05
2023-05-11T10:27:20.159Z,5.00
2023-05-11T10:29:48.257Z,8.05
2023-05-11T10:32:17.969Z,13.23
2023-05-11T10:34:50.302Z,4.82
2023-05-11T10:37:17.434Z,2.63
2023-05-11T10:39:47.826Z,1.60
2023-05-11T10:42:27.368Z,4.95
2023-05-11T10:45:14.229Z,6.13
2023-05-11T10:47:43.535Z,4.03
2023-05-11T10:50:38.636Z,7.53
2023-05-11T10:56:18.334Z,6.55
2023-05-11T10:59:23.058Z,6.43
2023-05-11T11:01:54.904Z,4.18
2023-05-11T11:04:21.790Z,4.03
2023-05-11T11:07:05.062Z,5.43
2023-05-11T11:09:52.556Z,3.13
2023-05-11T11:12:21.478Z,4.25
2023-05-11T11:14:58.834Z,5.28
2023-05-11T11:17:31.823Z,8.32
2023-05-11T11:20:01.361Z,6.63
2023-05-11T11:22:41.650Z,6.35
2023-05-11T11:25:09.900Z,4.93
2023-05-11T11:27:43.037Z,4.97
2023-05-11T11:30:26.532Z,2.85
2023-05-11T11:33:09.839Z,5.50
2023-05-11T11:35:39.528Z,4.90
2023-05-11T11:38:19.827Z,7.03
2023-05-11T11:40:52.529Z,3.72
2023-05-11T11:43:24.880Z,3.88
2023-05-11T11:45:53.857Z,2.97
2023-05-11T11:48:39.203Z,3.92
2023-05-11T11:51:05.984Z,6.00
2023-05-11T11:53:40.867Z,2.20
2023-05-11T11:56:13.635Z,0.50
2023-05-11T11:58:46.667Z,1.73
2023-05-11T12:01:21.980Z,2.42
2023-05-11T12:04:09.817Z,2.42
2023-05-11T12:06:41.342Z,2.05
2023-05-11T12:09:08.454Z,2.03
2023-05-11T12:11:35.235Z,2.70
2023-05-11T12:14:02.843Z,2.50
2023-05-11T12:16:29.928Z,5.18
2023-05-11T12:19:02.308Z,2.88
2023-05-11T12:21:33.876Z,3.50
2023-05-11T12:24:02.273Z,2.33
2023-05-11T12:26:29.994Z,5.88
2023-05-11T12:29:13.829Z,6.47
2023-05-11T12:31:42.170Z,3.88
2023-05-11T12:34:16.402Z,6.43
2023-05-11T12:36:44.992Z,4.53
2023-05-11T12:39:23.030Z,5.05
2023-05-11T12:41:53.181Z,4.85
2023-05-11T12:44:23.166Z,8.60
2023-05-11T12:46:50.659Z,5.88
2023-05-11T12:49:24.638Z,3.38
2023-05-11T12:51:55.842Z,1.92
2023-05-11T12:54:26.472Z,2.67
2023-05-11T12:56:53.134Z,2.05
2023-05-11T12:59:32.598Z,2.75
2023-05-11T13:02:19.441Z,4.55
2023-05-11T13:04:47.295Z,0.82
2023-05-11T13:07:15.317Z,6.70
2023-05-11T13:09:42.574Z,3.78
2023-05-11T13:12:17.467Z,8.68
2023-05-11T13:14:49.207Z,3.17
2023-05-11T13:17:31.137Z,4.15
2023-05-11T13:20:15.044Z,2.88
2023-05-11T13:22:41.679Z,5.27
2023-05-11T13:25:09.335Z,3.17
2023-05-11T13:27:36.997Z,5.75
2023-05-11T13:30:07.369Z,1.98
2023-05-11T13:32:34.041Z,7.05
2023-05-11T13:35:04.775Z,3.53
2023-05-11T13:37:32.265Z,3.00
2023-05-11T13:39:58.928Z,3.08
2023-05-11T13:42:25.626Z,3.67
2023-05-11T13:44:52.691Z,0.60
2023-05-11T13:47:19.202Z,2.45
2023-05-11T13:49:48.954Z,2.00
2023-05-11T13:52:15.789Z,3.70
2023-05-11T13:54:42.305Z,1.60
2023-05-11T13:57:08.993Z,0.75
2023-05-11T13:59:35.586Z,0.82
2023-05-11T14:02:02.673Z,1.30
2023-05-11T14:04:29.332Z,1.73
2023-05-11T14:06:56.317Z,1.67
2023-05-11T14:09:23.556Z,3.35
2023-05-11T14:11:53.264Z,1.25
2023-05-11T14:14:19.836Z,2.05
2023-05-11T14:16:46.490Z,2.83
2023-05-11T14:19:13.322Z,1.17
2023-05-11T14:21:39.924Z,1.77
2023-05-11T14:24:11.961Z,1.02
2023-05-11T14:26:39.804Z,1.17
2023-05-11T14:29:06.991Z,0.50
2023-05-11T14:31:35.796Z,3.03
2023-05-11T14:34:05.844Z,1.63
2023-05-11T14:36:32.724Z,0.28
2023-05-11T14:38:59.277Z,1.35
2023-05-11T14:41:25.935Z,3.30
2023-05-11T14:43:52.835Z,3.83
2023-05-11T14:46:19.694Z,1.33
2023-05-11T14:48:46.404Z,1.77
2023-05-11T14:51:13.032Z,4.05
2023-05-11T14:53:39.703Z,3.13
2023-05-11T14:56:06.907Z,3.33
2023-05-11T14:58:33.445Z,2.33
2023-05-11T15:00:59.946Z,2.38
2023-05-11T15:03:26.796Z,2.78
2023-05-11T15:05:53.676Z,2.75
2023-05-11T15:08:29.550Z,2.08
2023-05-11T15:10:57.437Z,3.83
2023-05-11T15:13:24.758Z,4.90
2023-05-11T15:15:51.854Z,4.35
2023-05-11T15:18:19.144Z,6.90
2023-05-11T15:20:46.543Z,3.10
2023-05-11T15:23:16.888Z,9.70
2023-05-11T15:25:44.812Z,5.82
2023-05-11T15:28:11.814Z,3.92
2023-05-11T15:30:38.673Z,2.22
2023-05-11T15:33:05.404Z,2.20
2023-05-11T15:35:34.351Z,1.20
2023-05-11T15:38:00.915Z,2.38
2023-05-11T15:40:28.333Z,2.72
2023-05-11T15:42:57.851Z,1.20
2023-05-11T15:45:26.361Z,1.58
2023-05-11T15:47:54.126Z,2.13
2023-05-11T15:50:22.042Z,1.60
2023-05-11T15:52:48.979Z,2.78
2023-05-11T15:55:15.687Z,5.88
2023-05-11T15:57:42.224Z,2.10
2023-05-11T16:00:12.831Z,2.47
2023-05-11T16:02:39.704Z,3.13
2023-05-11T16:05:06.952Z,2.97
2023-05-11T16:07:33.560Z,2.67
2023-05-11T16:10:00.403Z,2.03
2023-05-11T16:12:27.027Z,2.13
2023-05-11T16:14:53.711Z,1.35
2023-05-11T16:17:20.437Z,4.43
2023-05-11T16:19:47.347Z,3.72
2023-05-11T16:22:13.905Z,2.25
2023-05-11T16:24:40.430Z,2.90
2023-05-11T16:27:06.994Z,2.05
2023-05-11T16:29:33.742Z,1.58
2023-05-11T16:32:00.504Z,0.28
2023-05-11T16:34:28.056Z,4.25
2023-05-11T16:36:55.329Z,0.77
2023-05-11T16:39:23.307Z,0.75
2023-05-11T16:41:49.827Z,2.97
2023-05-11T16:44:16.394Z,0.47
2023-05-11T16:46:42.979Z,0.95
2023-05-11T16:49:09.601Z,1.48
2023-05-11T16:51:36.281Z,1.00
2023-05-11T16:54:02.802Z,1.10
2023-05-11T16:56:29.654Z,0.75
2023-05-11T16:58:56.194Z,0.40
2023-05-11T17:01:22.971Z,0.85
2023-05-11T17:03:49.745Z,0.32
2023-05-11T17:06:20.886Z,1.85
2023-05-11T17:08:47.721Z,0.70
2023-05-11T17:11:14.531Z,1.23
2023-05-11T17:13:41.158Z,2.05
2023-05-11T17:16:07.962Z,0.93
2023-05-11T17:18:34.696Z,1.70
2023-05-11T17:21:01.754Z,1.20
2023-05-11T17:23:28.625Z,0.90
2023-05-11T17:25:55.296Z,0.73
2023-05-11T17:28:22.242Z,0.70
2023-05-11T17:30:57.866Z,3.70
2023-05-11T17:33:24.743Z,1.63
2023-05-11T17:35:51.449Z,2.65
2023-05-11T17:38:17.996Z,3.17
2023-05-11T17:43:11.561Z,2.05
2023-05-11T17:45:38.749Z,2.47
2023-05-11T17:48:05.558Z,2.10
2023-05-11T17:50:33.356Z,2.42
2023-05-11T17:52:59.910Z,2.72
2023-05-11T17:55:26.796Z,1.17
2023-05-11T17:57:53.327Z,1.35
2023-05-11T18:00:20.638Z,3.42
2023-05-11T18:02:48.813Z,2.55
2023-05-11T18:05:16.159Z,1.55
2023-05-11T18:07:42.790Z,2.03
2023-05-11T18:10:10.966Z,3.58
2023-05-11T18:12:37.610Z,0.75
2023-05-11T18:15:05.264Z,3.88
2023-05-11T18:17:31.861Z,4.53
2023-05-11T18:19:58.441Z,3.20
2023-05-11T18:22:25.325Z,0.57
2023-05-11T18:24:51.990Z,1.52
2023-05-11T18:27:18.573Z,2.85
2023-05-11T18:29:45.120Z,0.95
2023-05-11T18:32:11.698Z,3.17
2023-05-11T18:34:41.282Z,0.90
2023-05-11T18:37:09.534Z,2.53
2023-05-11T18:39:36.400Z,1.20
2023-05-11T18:42:04.147Z,1.08
2023-05-11T18:44:30.734Z,1.08
2023-05-11T18:46:57.457Z,2.08
2023-05-11T18:49:24.162Z,1.17
2023-05-11T18:51:50.701Z,1.63
2023-05-11T18:54:17.312Z,1.67
2023-05-11T18:56:43.921Z,1.50
2023-05-11T18:59:10.928Z,2.83
2023-05-11T19:01:47.049Z,1.27
2023-05-11T19:04:17.681Z,0.35
2023-05-11T19:06:44.207Z,2.30
2023-05-11T19:09:10.813Z,3.17
2023-05-11T19:11:38.053Z,2.70
2023-05-11T19:14:04.720Z,3.10
2023-05-11T19:16:32.757Z,1.65
2023-05-11T19:18:59.693Z,2.38
2023-05-11T19:21:26.480Z,1.40
2023-05-11T19:23:53.126Z,3.67
2023-05-11T19:26:19.686Z,4.10
2023-05-11T19:28:46.251Z,1.20
2023-05-11T19:31:12.802Z,0.82
2023-05-11T19:33:39.452Z,4.97
2023-05-11T19:36:06.094Z,1.27
2023-05-11T19:38:35.307Z,3.72
2023-05-11T19:41:02.129Z,5.45
2023-05-11T19:43:28.710Z,6.10
2023-05-11T19:45:55.513Z,2.75
2023-05-11T19:48:22.535Z,2.08
2023-05-11T19:50:49.107Z,1.92
2023-05-11T19:53:15.679Z,2.78
2023-05-11T19:55:42.311Z,2.17
2023-05-11T19:58:09.807Z,1.70
2023-05-11T20:00:37.029Z,3.30
2023-05-11T20:03:03.775Z,1.60
2023-05-11T20:05:30.447Z,2.30
2023-05-11T20:07:57.015Z,4.35
2023-05-11T20:10:23.612Z,5.38
2023-05-11T20:12:51.324Z,1.45
2023-05-11T20:15:18.568Z,1.45
2023-05-11T20:17:45.464Z,3.50
2023-05-11T20:20:12.388Z,2.05
2023-05-11T20:22:39.010Z,5.70
2023-05-11T20:25:14.107Z,2.08
2023-05-11T20:27:44.840Z,1.75
2023-05-11T20:30:12.098Z,2.70
2023-05-11T20:32:38.669Z,3.40
2023-05-11T20:35:05.782Z,2.60
2023-05-11T20:37:32.538Z,3.28
2023-05-11T20:39:59.162Z,4.68
2023-05-11T20:42:26.308Z,7.97
2023-05-11T20:44:53.481Z,2.65
2023-05-11T20:47:20.316Z,2.85
2023-05-11T20:49:47.886Z,3.47
2023-05-11T20:52:14.419Z,1.83
2023-05-11T20:54:42.187Z,3.03
2023-05-11T20:57:08.774Z,4.03
2023-05-11T21:02:05.261Z,2.67
2023-05-11T21:04:31.858Z,2.35
2023-05-11T21:06:58.431Z,4.13
2023-05-11T21:09:25.558Z,4.50
2023-05-11T21:11:52.300Z,4.97
2023-05-11T21:14:18.841Z,1.67
2023-05-11T21:16:45.466Z,3.60
2023-05-11T21:19:12.149Z,3.70
2023-05-11T21:21:38.799Z,4.55
2023-05-11T21:24:06.189Z,5.97
2023-05-11T21:26:32.763Z,3.40
2023-05-11T21:28:59.333Z,3.22
2023-05-11T21:31:26.051Z,1.45
2023-05-11T21:33:52.707Z,3.35
2023-05-11T21:36:19.614Z,2.50
2023-05-11T21:38:46.141Z,4.68
2023-05-11T21:41:12.940Z,3.95
2023-05-11T21:43:39.740Z,1.42
2023-05-11T21:46:06.427Z,3.38
2023-05-11T21:48:32.981Z,3.53
2023-05-11T21:50:59.589Z,1.95
2023-05-11T21:53:26.472Z,5.88
2023-05-11T21:55:53.036Z,3.97
2023-05-11T21:58:19.634Z,2.92
2023-05-11T22:00:46.486Z,2.20
2023-05-11T22:03:13.384Z,3.70
2023-05-11T22:05:40.126Z,3.40
2023-05-11T22:08:15.099Z,2.33
2023-05-11T22:10:43.126Z,4.32
2023-05-11T22:13:09.972Z,1.20
2023-05-11T22:15:36.567Z,3.10
2023-05-11T22:18:03.629Z,1.23
2023-05-11T22:20:31.774Z,2.35
2023-05-11T22:22:59.174Z,3.25
2023-05-11T22:25:26.082Z,3.60
2023-05-11T22:27:52.730Z,2.80
2023-05-11T22:30:20.014Z,1.45
2023-05-11T22:32:47.491Z,0.98
2023-05-11T22:35:14.209Z,2.58
2023-05-11T22:37:40.792Z,2.17
2023-05-11T22:40:07.983Z,1.52
2023-05-11T22:42:34.876Z,3.03
2023-05-11T22:45:01.406Z,2.97
2023-05-11T22:47:28.169Z,2.78
2023-05-11T22:49:54.977Z,1.13
2023-05-11T22:52:21.838Z,4.82
2023-05-11T22:54:54.768Z,1.45
2023-05-11T22:57:24.017Z,4.68
2023-05-11T22:59:50.705Z,3.50
2023-05-11T23:02:17.954Z,4.18
2023-05-11T23:04:50.324Z,3.97
2023-05-11T23:07:16.906Z,2.38
2023-05-11T23:09:43.618Z,3.08
2023-05-11T23:12:10.261Z,1.17
2023-05-11T23:14:37.237Z,3.60
2023-05-11T23:17:03.786Z,2.90
2023-05-11T23:19:30.364Z,1.73
2023-05-11T23:21:56.980Z,2.50
2023-05-11T23:24:23.578Z,1.50
2023-05-11T23:26:50.709Z,2.50
2023-05-11T23:29:17.255Z,0.93
2023-05-11T23:31:44.139Z,4.22
2023-05-11T23:34:10.722Z,4.45
2023-05-11T23:36:37.262Z,5.07
2023-05-11T23:39:04.135Z,1.30
2023-05-11T23:41:30.751Z,1.13
2023-05-11T23:43:57.260Z,3.92
2023-05-11T23:46:25.081Z,3.15
2023-05-11T23:48:51.926Z,3.00
2023-05-11T23:51:18.456Z,6.47
2023-05-11T23:53:46.220Z,3.30
2023-05-11T23:56:13.149Z,2.88
2023-05-11T23:58:41.487Z,2.60
